Delta Buck — WDF8798 — position and weather

sailwx.info

Track history (hours):
 
Tides and Currents Weather Stations Pressure Air Temp Water Temp Dewpoint Dewpoint Depression Visibility Wind Speed Wind Dir Waves Ship Positions

Delta Buck

Owner: Crosby Marine Transportation, Golden Meadow, LA. More information available from US FCC via Universal Licensing System and Coast Guard Vessel Documentation Center.

Last reported at 2017-Sep-21 21:28 UTC. Time now 2017-Sep-22 00:57 UTC.
Position N 29°36' W 090°40'.

Length 20 m; draft 2.5 m.

Type: Towing. MMSI: 367498680.

Date/timePositionNaut miles runAvg speedWind from/ knotsBaromVisibWave heightAir tempDewpointWater temp
2017-Sep-21 21:28N 29°36' W 090°40'0 0.0
2017-Sep-21 20:58N 29°36' W 090°40'0 0.0
2017-Sep-21 20:28N 29°36' W 090°40'0 0.0
2017-Sep-21 19:58N 29°36' W 090°40'0 0.0
2017-Sep-21 19:28N 29°36' W 090°40'0 0.0
2017-Sep-21 18:58N 29°36' W 090°40'0 0.0
2017-Sep-21 18:28N 29°36' W 090°40'0 0.0
2017-Sep-21 17:55N 29°36' W 090°40'0 0.0
2017-Sep-21 17:28N 29°36' W 090°40'0 0.0
2017-Sep-21 16:58N 29°36' W 090°40'0 0.0
2017-Sep-21 16:28N 29°36' W 090°40'2 3.5
2017-Sep-21 16:00N 29°37' W 090°42'3 6.7
2017-Sep-21 15:31N 29°34' W 090°44'4 7.6
2017-Sep-21 15:00N 29°32' W 090°48'2 0.1
2017-Sep-20 21:10N 29°32' W 090°50'1 7.9
2017-Sep-20 21:00N 29°32' W 090°48'3 6.8
2017-Sep-20 20:31N 29°34' W 090°45'3 5.7
2017-Sep-20 20:01N 29°36' W 090°43'2 4.1
2017-Sep-20 19:30N 29°36' W 090°40'0 0.1
2017-Sep-20 18:58N 29°36' W 090°40'0 0.0
2017-Sep-20 18:28N 29°36' W 090°40'0 0.0
2017-Sep-20 17:52N 29°36' W 090°40'0 0.0
2017-Sep-20 17:28N 29°36' W 090°40'0 0.0
2017-Sep-20 16:58N 29°36' W 090°40'0 0.0
2017-Sep-20 16:22N 29°36' W 090°40'0 0.0
2017-Sep-20 15:58N 29°36' W 090°40'0 0.0
2017-Sep-20 15:28N 29°36' W 090°40'0 0.0
2017-Sep-20 14:58N 29°36' W 090°40'0 0.0
2017-Sep-20 13:58N 29°36' W 090°40'0 0.0
2017-Sep-20 13:28N 29°36' W 090°40'0 0.0
2017-Sep-20 12:58N 29°36' W 090°40'0 0.0
2017-Sep-20 12:28N 29°36' W 090°40'0 0.0
2017-Sep-20 11:58N 29°36' W 090°40'0 0.0
2017-Sep-20 11:28N 29°36' W 090°40'0 0.0
2017-Sep-20 10:58N 29°36' W 090°40'0 0.0
2017-Sep-20 10:28N 29°36' W 090°40'0 0.0
2017-Sep-20 09:52N 29°36' W 090°40'0 0.0
2017-Sep-20 09:28N 29°36' W 090°40'0 0.0
2017-Sep-20 08:58N 29°36' W 090°40'0 0.0
2017-Sep-20 08:28N 29°36' W 090°40'0 0.0
2017-Sep-20 07:58N 29°36' W 090°40'0 0.0
2017-Sep-20 07:28N 29°36' W 090°40'0 0.0
2017-Sep-20 06:58N 29°36' W 090°40'0 0.0
2017-Sep-20 06:28N 29°36' W 090°40'0 0.0
2017-Sep-20 05:58N 29°36' W 090°40'0 0.0
2017-Sep-20 05:28N 29°36' W 090°40'0 0.0
2017-Sep-20 04:58N 29°36' W 090°40'0 0.0
2017-Sep-20 04:28N 29°36' W 090°40'0 0.0
2017-Sep-20 03:59N 29°36' W 090°40'2 5.2
2017-Sep-20 03:30N 29°35' W 090°38'4 7.7
2017-Sep-20 03:00N 29°34' W 090°33'4 0.1
2017-Sep-18 04:06N 29°34' W 090°28'1 4.9
2017-Sep-18 03:54N 29°34' W 090°30'2 4.9
2017-Sep-18 03:26N 29°34' W 090°32'2 4.7
2017-Sep-18 02:59N 29°34' W 090°34'2 4.5
2017-Sep-18 02:30N 29°35' W 090°37'3 4.9
2017-Sep-18 02:00N 29°36' W 090°39'2 4.9
2017-Sep-18 01:30N 29°37' W 090°42'2 3.8
2017-Sep-18 01:00N 29°35' W 090°43'2 3.5
2017-Sep-18 00:30N 29°34' W 090°44'1 2.3
2017-Sep-18 00:00N 29°33' W 090°45'1 2.0
2017-Sep-17 23:30N 29°32' W 090°46'3 5.2
2017-Sep-17 23:00N 29°32' W 090°49'1 0.0
2017-Sep-16 21:09N 29°32' W 090°50'1 8.6
2017-Sep-16 21:00N 29°32' W 090°49'4 7.1
2017-Sep-16 20:30N 29°34' W 090°45'3 5.0
2017-Sep-16 20:00N 29°33' W 090°42'0 0.3
2017-Sep-16 19:28N 29°33' W 090°42'0 0.0
2017-Sep-16 18:58N 29°33' W 090°42'0 0.0
2017-Sep-16 18:28N 29°33' W 090°42'0 0.0
2017-Sep-16 17:58N 29°33' W 090°42'0 0.0
2017-Sep-16 17:28N 29°33' W 090°42'0 0.0
2017-Sep-16 16:58N 29°33' W 090°42'0 0.0
2017-Sep-16 16:28N 29°33' W 090°42'0 0.0
2017-Sep-16 15:58N 29°33' W 090°42'0 0.0
2017-Sep-16 15:28N 29°33' W 090°42'0 0.0
2017-Sep-16 14:55N 29°33' W 090°42'0 0.0
2017-Sep-16 14:28N 29°33' W 090°42'0 0.0
2017-Sep-16 13:58N 29°33' W 090°42'0 0.0
2017-Sep-16 13:28N 29°33' W 090°42'0 0.0
2017-Sep-16 12:58N 29°33' W 090°42'0 0.0
2017-Sep-16 12:28N 29°33' W 090°42'0 0.0
2017-Sep-16 11:58N 29°33' W 090°42'0 0.0
2017-Sep-16 11:28N 29°33' W 090°42'0 0.0
2017-Sep-16 10:58N 29°33' W 090°42'0 0.0
2017-Sep-16 10:28N 29°33' W 090°42'0 0.0
2017-Sep-16 09:58N 29°33' W 090°42'0 0.0
2017-Sep-16 09:28N 29°33' W 090°42'0 0.0
2017-Sep-16 08:58N 29°33' W 090°42'0 0.0
2017-Sep-16 08:28N 29°33' W 090°42'0 0.0
2017-Sep-16 07:58N 29°33' W 090°42'0 0.0
2017-Sep-16 07:28N 29°33' W 090°42'0 0.0
2017-Sep-16 06:58N 29°33' W 090°42'0 0.0
2017-Sep-16 06:28N 29°33' W 090°42'0 0.0
2017-Sep-16 06:00N 29°33' W 090°42'1 2.7
2017-Sep-16 05:30N 29°34' W 090°42'0 0.6
2017-Sep-16 05:00N 29°34' W 090°42'1 1.7
2017-Sep-16 04:30N 29°34' W 090°43'2 3.1
2017-Sep-16 04:00N 29°35' W 090°43'2 3.1
2017-Sep-16 03:30N 29°37' W 090°42'1 2.1
2017-Sep-16 03:00N 29°36' W 090°41'0 0.0
2017-Sep-16 02:30N 29°36' W 090°41'0 0.1
2017-Sep-16 02:00N 29°36' W 090°41'0 0.7
2017-Sep-16 01:30N 29°36' W 090°41'2 3.1
2017-Sep-16 01:00N 29°36' W 090°39'8 0.3
2017-Sep-15 01:10N 29°38' W 090°30'2 3.7
2017-Sep-15 00:41N 29°36' W 090°29'3 1.2
2017-Sep-14 22:33N 29°34' W 090°30'1 7.9
2017-Sep-14 22:25N 29°34' W 090°31'4 8.4
2017-Sep-14 21:56N 29°35' W 090°35'1 0.0
2017-Sep-13 22:31N 29°35' W 090°36'0 3.7
2017-Sep-13 22:30N 29°35' W 090°36'3 5.6
2017-Sep-13 22:00N 29°36' W 090°39'1 2.2
2017-Sep-13 21:28N 29°36' W 090°40'0 0.0
2017-Sep-13 20:58N 29°36' W 090°40'0 0.0
2017-Sep-13 20:28N 29°36' W 090°40'0 0.0
2017-Sep-13 19:58N 29°36' W 090°40'0 0.0
2017-Sep-13 19:28N 29°36' W 090°40'0 0.0
2017-Sep-13 18:55N 29°36' W 090°40'0 0.0
2017-Sep-13 18:28N 29°36' W 090°40'0 0.0
2017-Sep-13 16:36N 29°36' W 090°40'0 0.1
2017-Sep-13 16:30N 29°36' W 090°40'0 0.0
2017-Sep-13 16:00N 29°36' W 090°40'0 0.0
2017-Sep-13 15:30N 29°36' W 090°40'0 0.0
2017-Sep-13 15:00N 29°36' W 090°40'1 1.0
2017-Sep-13 14:30N 29°36' W 090°40'3 6.0
2017-Sep-13 14:00N 29°35' W 090°37'1 2.0
2017-Sep-13 13:30N 29°35' W 090°36'0 0.0
2017-Sep-13 13:00N 29°35' W 090°36'0 0.0
2017-Sep-13 12:30N 29°35' W 090°36'0 0.0
2017-Sep-13 12:00N 29°35' W 090°36'0 0.0
2017-Sep-13 11:30N 29°35' W 090°36'0 0.0
2017-Sep-13 11:00N 29°35' W 090°36'0 0.0
2017-Sep-13 10:29N 29°35' W 090°36'0 0.0
2017-Sep-13 10:00N 29°35' W 090°36'0 0.0
2017-Sep-13 09:25N 29°35' W 090°36'0 0.0
2017-Sep-13 09:00N 29°35' W 090°36'0 0.0
2017-Sep-13 08:30N 29°35' W 090°36'0 0.0
2017-Sep-13 08:00N 29°35' W 090°36'0 0.0
2017-Sep-13 07:29N 29°35' W 090°36'0 0.0
2017-Sep-13 06:59N 29°35' W 090°36'0 0.0
2017-Sep-13 06:16N 29°35' W 090°36'0 0.0
2017-Sep-13 06:00N 29°35' W 090°36'0 0.0
2017-Sep-13 05:30N 29°35' W 090°36'0 0.0
2017-Sep-13 04:58N 29°35' W 090°36'0 0.0
2017-Sep-13 04:30N 29°35' W 090°36'0 0.0
2017-Sep-13 03:59N 29°35' W 090°36'0 0.0
2017-Sep-13 03:29N 29°35' W 090°36'0 0.0
2017-Sep-13 03:00N 29°35' W 090°36'0 0.0
2017-Sep-13 02:30N 29°35' W 090°36'0 0.0
2017-Sep-13 02:00N 29°35' W 090°36'0 0.0
2017-Sep-13 01:30N 29°35' W 090°36'0 0.0
2017-Sep-13 01:00N 29°35' W 090°36'0 0.0
2017-Sep-13 00:30N 29°35' W 090°36'0 0.0
2017-Sep-13 00:00N 29°35' W 090°36'4 6.3
2017-Sep-12 23:25N 29°34' W 090°32'  
Track history (hours):
 
Tides and Currents Weather Stations Pressure Air Temp Water Temp Dewpoint Dewpoint Depression Visibility Wind Speed Wind Dir Waves Ship Positions

Delta Buck

Owner: Crosby Marine Transportation, Golden Meadow, LA. More information available from US FCC via Universal Licensing System and Coast Guard Vessel Documentation Center.

Last reported at 2017-Sep-21 21:28 UTC. Time now 2017-Sep-22 00:57 UTC.
Position N 29°36' W 090°40'.

Length 20 m; draft 2.5 m.

Type: Towing. MMSI: 367498680.

Date/timePositionNaut miles runAvg speedWind from/ knotsBaromVisibWave heightAir tempDewpointWater temp
2017-Sep-21 21:28N 29°36' W 090°40'0 0.0
2017-Sep-21 20:58N 29°36' W 090°40'0 0.0
2017-Sep-21 20:28N 29°36' W 090°40'0 0.0
2017-Sep-21 19:58N 29°36' W 090°40'0 0.0
2017-Sep-21 19:28N 29°36' W 090°40'0 0.0
2017-Sep-21 18:58N 29°36' W 090°40'0 0.0
2017-Sep-21 18:28N 29°36' W 090°40'0 0.0
2017-Sep-21 17:55N 29°36' W 090°40'0 0.0
2017-Sep-21 17:28N 29°36' W 090°40'0 0.0
2017-Sep-21 16:58N 29°36' W 090°40'0 0.0
2017-Sep-21 16:28N 29°36' W 090°40'2 3.5
2017-Sep-21 16:00N 29°37' W 090°42'3 6.7
2017-Sep-21 15:31N 29°34' W 090°44'4 7.6
2017-Sep-21 15:00N 29°32' W 090°48'2 0.1
2017-Sep-20 21:10N 29°32' W 090°50'1 7.9
2017-Sep-20 21:00N 29°32' W 090°48'3 6.8
2017-Sep-20 20:31N 29°34' W 090°45'3 5.7
2017-Sep-20 20:01N 29°36' W 090°43'2 4.1
2017-Sep-20 19:30N 29°36' W 090°40'0 0.1
2017-Sep-20 18:58N 29°36' W 090°40'0 0.0
2017-Sep-20 18:28N 29°36' W 090°40'0 0.0
2017-Sep-20 17:52N 29°36' W 090°40'0 0.0
2017-Sep-20 17:28N 29°36' W 090°40'0 0.0
2017-Sep-20 16:58N 29°36' W 090°40'0 0.0
2017-Sep-20 16:22N 29°36' W 090°40'0 0.0
2017-Sep-20 15:58N 29°36' W 090°40'0 0.0
2017-Sep-20 15:28N 29°36' W 090°40'0 0.0
2017-Sep-20 14:58N 29°36' W 090°40'0 0.0
2017-Sep-20 13:58N 29°36' W 090°40'0 0.0
2017-Sep-20 13:28N 29°36' W 090°40'0 0.0
2017-Sep-20 12:58N 29°36' W 090°40'0 0.0
2017-Sep-20 12:28N 29°36' W 090°40'0 0.0
2017-Sep-20 11:58N 29°36' W 090°40'0 0.0
2017-Sep-20 11:28N 29°36' W 090°40'0 0.0
2017-Sep-20 10:58N 29°36' W 090°40'0 0.0
2017-Sep-20 10:28N 29°36' W 090°40'0 0.0
2017-Sep-20 09:52N 29°36' W 090°40'0 0.0
2017-Sep-20 09:28N 29°36' W 090°40'0 0.0
2017-Sep-20 08:58N 29°36' W 090°40'0 0.0
2017-Sep-20 08:28N 29°36' W 090°40'0 0.0
2017-Sep-20 07:58N 29°36' W 090°40'0 0.0
2017-Sep-20 07:28N 29°36' W 090°40'0 0.0
2017-Sep-20 06:58N 29°36' W 090°40'0 0.0
2017-Sep-20 06:28N 29°36' W 090°40'0 0.0
2017-Sep-20 05:58N 29°36' W 090°40'0 0.0
2017-Sep-20 05:28N 29°36' W 090°40'0 0.0
2017-Sep-20 04:58N 29°36' W 090°40'0 0.0
2017-Sep-20 04:28N 29°36' W 090°40'0 0.0
2017-Sep-20 03:59N 29°36' W 090°40'2 5.2
2017-Sep-20 03:30N 29°35' W 090°38'4 7.7
2017-Sep-20 03:00N 29°34' W 090°33'4 0.1
2017-Sep-18 04:06N 29°34' W 090°28'1 4.9
2017-Sep-18 03:54N 29°34' W 090°30'2 4.9
2017-Sep-18 03:26N 29°34' W 090°32'2 4.7
2017-Sep-18 02:59N 29°34' W 090°34'2 4.5
2017-Sep-18 02:30N 29°35' W 090°37'3 4.9
2017-Sep-18 02:00N 29°36' W 090°39'2 4.9
2017-Sep-18 01:30N 29°37' W 090°42'2 3.8
2017-Sep-18 01:00N 29°35' W 090°43'2 3.5
2017-Sep-18 00:30N 29°34' W 090°44'1 2.3
2017-Sep-18 00:00N 29°33' W 090°45'1 2.0
2017-Sep-17 23:30N 29°32' W 090°46'3 5.2
2017-Sep-17 23:00N 29°32' W 090°49'1 0.0
2017-Sep-16 21:09N 29°32' W 090°50'1 8.6
2017-Sep-16 21:00N 29°32' W 090°49'4 7.1
2017-Sep-16 20:30N 29°34' W 090°45'3 5.0
2017-Sep-16 20:00N 29°33' W 090°42'0 0.3
2017-Sep-16 19:28N 29°33' W 090°42'0 0.0
2017-Sep-16 18:58N 29°33' W 090°42'0 0.0
2017-Sep-16 18:28N 29°33' W 090°42'0 0.0
2017-Sep-16 17:58N 29°33' W 090°42'0 0.0
2017-Sep-16 17:28N 29°33' W 090°42'0 0.0
2017-Sep-16 16:58N 29°33' W 090°42'0 0.0
2017-Sep-16 16:28N 29°33' W 090°42'0 0.0
2017-Sep-16 15:58N 29°33' W 090°42'0 0.0
2017-Sep-16 15:28N 29°33' W 090°42'0 0.0
2017-Sep-16 14:55N 29°33' W 090°42'0 0.0
2017-Sep-16 14:28N 29°33' W 090°42'0 0.0
2017-Sep-16 13:58N 29°33' W 090°42'0 0.0
2017-Sep-16 13:28N 29°33' W 090°42'0 0.0
2017-Sep-16 12:58N 29°33' W 090°42'0 0.0
2017-Sep-16 12:28N 29°33' W 090°42'0 0.0
2017-Sep-16 11:58N 29°33' W 090°42'0 0.0
2017-Sep-16 11:28N 29°33' W 090°42'0 0.0
2017-Sep-16 10:58N 29°33' W 090°42'0 0.0
2017-Sep-16 10:28N 29°33' W 090°42'0 0.0
2017-Sep-16 09:58N 29°33' W 090°42'0 0.0
2017-Sep-16 09:28N 29°33' W 090°42'0 0.0
2017-Sep-16 08:58N 29°33' W 090°42'0 0.0
2017-Sep-16 08:28N 29°33' W 090°42'0 0.0
2017-Sep-16 07:58N 29°33' W 090°42'0 0.0
2017-Sep-16 07:28N 29°33' W 090°42'0 0.0
2017-Sep-16 06:58N 29°33' W 090°42'0 0.0
2017-Sep-16 06:28N 29°33' W 090°42'0 0.0
2017-Sep-16 06:00N 29°33' W 090°42'1 2.7
2017-Sep-16 05:30N 29°34' W 090°42'0 0.6
2017-Sep-16 05:00N 29°34' W 090°42'1 1.7
2017-Sep-16 04:30N 29°34' W 090°43'2 3.1
2017-Sep-16 04:00N 29°35' W 090°43'2 3.1
2017-Sep-16 03:30N 29°37' W 090°42'1 2.1
2017-Sep-16 03:00N 29°36' W 090°41'0 0.0
2017-Sep-16 02:30N 29°36' W 090°41'0 0.1
2017-Sep-16 02:00N 29°36' W 090°41'0 0.7
2017-Sep-16 01:30N 29°36' W 090°41'2 3.1
2017-Sep-16 01:00N 29°36' W 090°39'8 0.3
2017-Sep-15 01:10N 29°38' W 090°30'2 3.7
2017-Sep-15 00:41N 29°36' W 090°29'3 1.2
2017-Sep-14 22:33N 29°34' W 090°30'1 7.9
2017-Sep-14 22:25N 29°34' W 090°31'4 8.4
2017-Sep-14 21:56N 29°35' W 090°35'1 0.0
2017-Sep-13 22:31N 29°35' W 090°36'0 3.7
2017-Sep-13 22:30N 29°35' W 090°36'3 5.6
2017-Sep-13 22:00N 29°36' W 090°39'1 2.2
2017-Sep-13 21:28N 29°36' W 090°40'0 0.0
2017-Sep-13 20:58N 29°36' W 090°40'0 0.0
2017-Sep-13 20:28N 29°36' W 090°40'0 0.0
2017-Sep-13 19:58N 29°36' W 090°40'0 0.0
2017-Sep-13 19:28N 29°36' W 090°40'0 0.0
2017-Sep-13 18:55N 29°36' W 090°40'0 0.0
2017-Sep-13 18:28N 29°36' W 090°40'0 0.0
2017-Sep-13 16:36N 29°36' W 090°40'0 0.1
2017-Sep-13 16:30N 29°36' W 090°40'0 0.0
2017-Sep-13 16:00N 29°36' W 090°40'0 0.0
2017-Sep-13 15:30N 29°36' W 090°40'0 0.0
2017-Sep-13 15:00N 29°36' W 090°40'1 1.0
2017-Sep-13 14:30N 29°36' W 090°40'3 6.0
2017-Sep-13 14:00N 29°35' W 090°37'1 2.0
2017-Sep-13 13:30N 29°35' W 090°36'0 0.0
2017-Sep-13 13:00N 29°35' W 090°36'0 0.0
2017-Sep-13 12:30N 29°35' W 090°36'0 0.0
2017-Sep-13 12:00N 29°35' W 090°36'0 0.0
2017-Sep-13 11:30N 29°35' W 090°36'0 0.0
2017-Sep-13 11:00N 29°35' W 090°36'0 0.0
2017-Sep-13 10:29N 29°35' W 090°36'0 0.0
2017-Sep-13 10:00N 29°35' W 090°36'0 0.0
2017-Sep-13 09:25N 29°35' W 090°36'0 0.0
2017-Sep-13 09:00N 29°35' W 090°36'0 0.0
2017-Sep-13 08:30N 29°35' W 090°36'0 0.0
2017-Sep-13 08:00N 29°35' W 090°36'0 0.0
2017-Sep-13 07:29N 29°35' W 090°36'0 0.0
2017-Sep-13 06:59N 29°35' W 090°36'0 0.0
2017-Sep-13 06:16N 29°35' W 090°36'0 0.0
2017-Sep-13 06:00N 29°35' W 090°36'0 0.0
2017-Sep-13 05:30N 29°35' W 090°36'0 0.0
2017-Sep-13 04:58N 29°35' W 090°36'0 0.0
2017-Sep-13 04:30N 29°35' W 090°36'0 0.0
2017-Sep-13 03:59N 29°35' W 090°36'0 0.0
2017-Sep-13 03:29N 29°35' W 090°36'0 0.0
2017-Sep-13 03:00N 29°35' W 090°36'0 0.0
2017-Sep-13 02:30N 29°35' W 090°36'0 0.0
2017-Sep-13 02:00N 29°35' W 090°36'0 0.0
2017-Sep-13 01:30N 29°35' W 090°36'0 0.0
2017-Sep-13 01:00N 29°35' W 090°36'0 0.0
2017-Sep-13 00:30N 29°35' W 090°36'0 0.0
2017-Sep-13 00:00N 29°35' W 090°36'4 6.3
2017-Sep-12 23:25N 29°34' W 090°32'  

Dump ship's entire track history